sensor_id;sensor_type;location;lat;lon;timestamp;P1;durP1;ratioP1;P2;durP2;ratioP2
21827;SDS011;11076;47.942;11.804;2023-11-22T00:02:00;10.60;;;6.40;;
21827;SDS011;11076;47.942;11.804;2023-11-22T00:07:02;7.90;;;4.63;;
21827;SDS011;11076;47.942;11.804;2023-11-22T00:12:05;8.00;;;5.50;;
21827;SDS011;11076;47.942;11.804;2023-11-22T00:17:08;9.30;;;7.10;;
21827;SDS011;11076;47.942;11.804;2023-11-22T00:22:11;13.53;;;7.67;;
21827;SDS011;11076;47.942;11.804;2023-11-22T00:27:16;11.53;;;7.83;;
21827;SDS011;11076;47.942;11.804;2023-11-22T00:32:20;10.23;;;7.33;;
21827;SDS011;11076;47.942;11.804;2023-11-22T00:37:22;10.60;;;7.53;;
21827;SDS011;11076;47.942;11.804;2023-11-22T00:42:24;12.50;;;7.37;;
21827;SDS011;11076;47.942;11.804;2023-11-22T00:47:27;12.70;;;7.70;;
21827;SDS011;11076;47.942;11.804;2023-11-22T00:52:30;10.00;;;6.37;;
21827;SDS011;11076;47.942;11.804;2023-11-22T00:57:33;12.00;;;7.07;;
21827;SDS011;11076;47.942;11.804;2023-11-22T01:02:35;10.70;;;7.27;;
21827;SDS011;11076;47.942;11.804;2023-11-22T01:07:40;10.20;;;6.67;;
21827;SDS011;11076;47.942;11.804;2023-11-22T01:12:42;11.63;;;7.43;;
21827;SDS011;11076;47.942;11.804;2023-11-22T01:17:45;11.53;;;7.47;;
21827;SDS011;11076;47.942;11.804;2023-11-22T01:22:47;11.10;;;7.33;;
21827;SDS011;11076;47.942;11.804;2023-11-22T01:27:49;13.73;;;7.83;;
21827;SDS011;11076;47.942;11.804;2023-11-22T01:32:52;11.27;;;7.07;;
21827;SDS011;11076;47.942;11.804;2023-11-22T01:37:54;9.47;;;6.47;;
21827;SDS011;11076;47.942;11.804;2023-11-22T01:42:58;10.73;;;6.87;;
21827;SDS011;11076;47.942;11.804;2023-11-22T01:48:01;9.53;;;6.23;;
21827;SDS011;11076;47.942;11.804;2023-11-22T01:53:04;11.37;;;6.47;;
21827;SDS011;11076;47.942;11.804;2023-11-22T01:58:07;9.27;;;5.80;;
21827;SDS011;11076;47.942;11.804;2023-11-22T02:03:09;14.10;;;7.63;;
21827;SDS011;11076;47.942;11.804;2023-11-22T02:08:12;9.63;;;7.10;;
21827;SDS011;11076;47.942;11.804;2023-11-22T02:13:15;11.00;;;6.83;;
21827;SDS011;11076;47.942;11.804;2023-11-22T02:18:18;9.83;;;7.20;;
21827;SDS011;11076;47.942;11.804;2023-11-22T02:23:20;12.97;;;6.23;;
21827;SDS011;11076;47.942;11.804;2023-11-22T02:28:22;10.90;;;7.43;;
21827;SDS011;11076;47.942;11.804;2023-11-22T02:33:26;10.83;;;6.83;;
21827;SDS011;11076;47.942;11.804;2023-11-22T02:38:28;7.80;;;5.57;;
21827;SDS011;11076;47.942;11.804;2023-11-22T02:43:31;6.93;;;5.80;;
21827;SDS011;11076;47.942;11.804;2023-11-22T02:48:33;6.03;;;4.07;;
21827;SDS011;11076;47.942;11.804;2023-11-22T02:53:36;5.53;;;4.13;;
21827;SDS011;11076;47.942;11.804;2023-11-22T02:58:40;3.90;;;3.27;;
21827;SDS011;11076;47.942;11.804;2023-11-22T03:03:42;5.93;;;4.03;;
21827;SDS011;11076;47.942;11.804;2023-11-22T03:08:45;3.53;;;2.77;;
21827;SDS011;11076;47.942;11.804;2023-11-22T03:13:49;4.50;;;3.57;;
21827;SDS011;11076;47.942;11.804;2023-11-22T03:18:51;5.40;;;4.53;;
21827;SDS011;11076;47.942;11.804;2023-11-22T03:23:54;4.70;;;3.60;;
21827;SDS011;11076;47.942;11.804;2023-11-22T03:28:56;5.37;;;3.23;;
21827;SDS011;11076;47.942;11.804;2023-11-22T03:33:59;3.70;;;2.90;;
21827;SDS011;11076;47.942;11.804;2023-11-22T03:39:01;2.27;;;1.90;;
21827;SDS011;11076;47.942;11.804;2023-11-22T03:44:05;3.50;;;2.63;;
21827;SDS011;11076;47.942;11.804;2023-11-22T03:49:10;3.77;;;2.93;;
21827;SDS011;11076;47.942;11.804;2023-11-22T03:54:13;4.47;;;3.57;;
21827;SDS011;11076;47.942;11.804;2023-11-22T03:59:15;5.23;;;3.97;;
21827;SDS011;11076;47.942;11.804;2023-11-22T04:04:19;5.17;;;3.87;;
21827;SDS011;11076;47.942;11.804;2023-11-22T04:09:21;4.63;;;3.47;;
21827;SDS011;11076;47.942;11.804;2023-11-22T04:14:24;6.07;;;4.33;;
21827;SDS011;11076;47.942;11.804;2023-11-22T04:19:29;8.73;;;4.70;;
21827;SDS011;11076;47.942;11.804;2023-11-22T04:24:31;5.27;;;4.17;;
21827;SDS011;11076;47.942;11.804;2023-11-22T04:29:33;4.43;;;3.67;;
21827;SDS011;11076;47.942;11.804;2023-11-22T04:34:36;5.17;;;4.00;;
21827;SDS011;11076;47.942;11.804;2023-11-22T04:39:39;8.90;;;7.15;;
21827;SDS011;11076;47.942;11.804;2023-11-22T04:44:42;4.13;;;2.67;;
21827;SDS011;11076;47.942;11.804;2023-11-22T04:49:44;4.40;;;3.50;;
21827;SDS011;11076;47.942;11.804;2023-11-22T04:54:47;4.77;;;3.03;;
21827;SDS011;11076;47.942;11.804;2023-11-22T04:59:49;5.37;;;4.07;;
21827;SDS011;11076;47.942;11.804;2023-11-22T05:04:52;4.60;;;2.70;;
21827;SDS011;11076;47.942;11.804;2023-11-22T05:09:54;4.20;;;3.43;;
21827;SDS011;11076;47.942;11.804;2023-11-22T05:14:57;4.23;;;3.23;;
21827;SDS011;11076;47.942;11.804;2023-11-22T05:19:59;3.73;;;2.83;;
21827;SDS011;11076;47.942;11.804;2023-11-22T05:25:02;3.27;;;2.90;;
21827;SDS011;11076;47.942;11.804;2023-11-22T05:30:04;5.43;;;3.20;;
21827;SDS011;11076;47.942;11.804;2023-11-22T05:35:07;4.27;;;3.23;;
21827;SDS011;11076;47.942;11.804;2023-11-22T05:40:11;9.13;;;3.77;;
21827;SDS011;11076;47.942;11.804;2023-11-22T05:45:14;5.17;;;3.50;;
21827;SDS011;11076;47.942;11.804;2023-11-22T05:50:16;5.33;;;3.83;;
21827;SDS011;11076;47.942;11.804;2023-11-22T05:55:19;4.77;;;3.10;;
21827;SDS011;11076;47.942;11.804;2023-11-22T06:00:22;5.43;;;4.10;;
21827;SDS011;11076;47.942;11.804;2023-11-22T06:05:24;7.93;;;3.90;;
21827;SDS011;11076;47.942;11.804;2023-11-22T06:10:27;5.53;;;4.00;;
21827;SDS011;11076;47.942;11.804;2023-11-22T06:15:29;5.37;;;3.00;;
21827;SDS011;11076;47.942;11.804;2023-11-22T06:20:32;6.97;;;4.40;;
21827;SDS011;11076;47.942;11.804;2023-11-22T06:25:35;5.63;;;3.80;;
21827;SDS011;11076;47.942;11.804;2023-11-22T06:30:44;7.70;;;4.30;;
21827;SDS011;11076;47.942;11.804;2023-11-22T06:35:46;4.00;;;2.90;;
21827;SDS011;11076;47.942;11.804;2023-11-22T06:40:49;3.67;;;2.83;;
21827;SDS011;11076;47.942;11.804;2023-11-22T06:45:51;5.47;;;3.77;;
21827;SDS011;11076;47.942;11.804;2023-11-22T06:50:54;7.77;;;4.17;;
21827;SDS011;11076;47.942;11.804;2023-11-22T06:55:56;4.57;;;3.77;;
21827;SDS011;11076;47.942;11.804;2023-11-22T07:00:58;7.20;;;4.27;;
21827;SDS011;11076;47.942;11.804;2023-11-22T07:06:03;7.10;;;3.83;;
21827;SDS011;11076;47.942;11.804;2023-11-22T07:11:06;7.40;;;4.10;;
21827;SDS011;11076;47.942;11.804;2023-11-22T07:16:11;6.37;;;4.30;;
21827;SDS011;11076;47.942;11.804;2023-11-22T07:21:17;7.17;;;4.80;;
21827;SDS011;11076;47.942;11.804;2023-11-22T07:26:19;4.33;;;3.33;;
21827;SDS011;11076;47.942;11.804;2023-11-22T07:31:22;6.07;;;4.40;;
21827;SDS011;11076;47.942;11.804;2023-11-22T07:36:25;5.77;;;4.07;;
21827;SDS011;11076;47.942;11.804;2023-11-22T07:41:27;9.87;;;3.87;;
21827;SDS011;11076;47.942;11.804;2023-11-22T07:46:30;5.77;;;3.93;;
21827;SDS011;11076;47.942;11.804;2023-11-22T07:51:32;7.63;;;5.00;;
21827;SDS011;11076;47.942;11.804;2023-11-22T07:56:34;7.20;;;3.27;;
21827;SDS011;11076;47.942;11.804;2023-11-22T08:01:37;10.40;;;4.87;;
21827;SDS011;11076;47.942;11.804;2023-11-22T08:06:40;5.73;;;4.40;;
21827;SDS011;11076;47.942;11.804;2023-11-22T08:11:42;4.80;;;3.20;;
21827;SDS011;11076;47.942;11.804;2023-11-22T08:16:45;5.17;;;3.70;;
21827;SDS011;11076;47.942;11.804;2023-11-22T08:21:47;4.70;;;2.23;;
21827;SDS011;11076;47.942;11.804;2023-11-22T08:26:50;5.03;;;3.87;;
21827;SDS011;11076;47.942;11.804;2023-11-22T08:31:52;5.47;;;4.00;;
21827;SDS011;11076;47.942;11.804;2023-11-22T08:36:55;4.83;;;3.70;;
21827;SDS011;11076;47.942;11.804;2023-11-22T08:41:58;1.80;;;1.20;;
21827;SDS011;11076;47.942;11.804;2023-11-22T08:47:00;5.80;;;3.97;;
21827;SDS011;11076;47.942;11.804;2023-11-22T08:52:03;3.07;;;2.33;;
21827;SDS011;11076;47.942;11.804;2023-11-22T08:57:05;3.97;;;3.17;;
21827;SDS011;11076;47.942;11.804;2023-11-22T09:02:08;7.27;;;4.00;;
21827;SDS011;11076;47.942;11.804;2023-11-22T09:07:10;9.15;;;6.32;;
21827;SDS011;11076;47.942;11.804;2023-11-22T09:12:13;5.03;;;4.00;;
21827;SDS011;11076;47.942;11.804;2023-11-22T09:17:15;4.37;;;3.57;;
21827;SDS011;11076;47.942;11.804;2023-11-22T09:22:18;6.37;;;3.40;;
21827;SDS011;11076;47.942;11.804;2023-11-22T09:27:20;3.60;;;3.23;;
21827;SDS011;11076;47.942;11.804;2023-11-22T09:32:24;5.63;;;3.87;;
21827;SDS011;11076;47.942;11.804;2023-11-22T09:37:26;4.30;;;3.53;;
21827;SDS011;11076;47.942;11.804;2023-11-22T09:42:28;3.13;;;2.83;;
21827;SDS011;11076;47.942;11.804;2023-11-22T09:47:32;4.20;;;3.10;;
21827;SDS011;11076;47.942;11.804;2023-11-22T09:52:36;4.53;;;2.90;;
21827;SDS011;11076;47.942;11.804;2023-11-22T09:57:44;3.53;;;3.20;;
21827;SDS011;11076;47.942;11.804;2023-11-22T10:02:46;5.77;;;3.40;;
21827;SDS011;11076;47.942;11.804;2023-11-22T10:07:49;4.70;;;3.40;;
21827;SDS011;11076;47.942;11.804;2023-11-22T10:12:54;3.50;;;3.03;;
21827;SDS011;11076;47.942;11.804;2023-11-22T10:18:00;3.90;;;3.17;;
21827;SDS011;11076;47.942;11.804;2023-11-22T10:23:02;3.40;;;3.07;;
21827;SDS011;11076;47.942;11.804;2023-11-22T10:28:05;2.70;;;1.93;;
21827;SDS011;11076;47.942;11.804;2023-11-22T10:33:09;3.43;;;2.97;;
21827;SDS011;11076;47.942;11.804;2023-11-22T10:38:16;3.53;;;2.90;;
21827;SDS011;11076;47.942;11.804;2023-11-22T10:43:19;4.40;;;3.60;;
21827;SDS011;11076;47.942;11.804;2023-11-22T10:48:28;6.03;;;3.23;;
21827;SDS011;11076;47.942;11.804;2023-11-22T10:53:34;3.67;;;2.87;;
21827;SDS011;11076;47.942;11.804;2023-11-22T10:58:45;3.37;;;3.07;;
21827;SDS011;11076;47.942;11.804;2023-11-22T11:03:55;4.60;;;3.17;;
21827;SDS011;11076;47.942;11.804;2023-11-22T11:09:03;4.57;;;3.80;;
21827;SDS011;11076;47.942;11.804;2023-11-22T11:14:08;3.47;;;3.17;;
21827;SDS011;11076;47.942;11.804;2023-11-22T11:19:13;3.80;;;3.27;;
21827;SDS011;11076;47.942;11.804;2023-11-22T11:24:17;3.20;;;2.90;;
21827;SDS011;11076;47.942;11.804;2023-11-22T11:29:30;4.43;;;3.20;;
21827;SDS011;11076;47.942;11.804;2023-11-22T11:34:37;3.23;;;2.93;;
21827;SDS011;11076;47.942;11.804;2023-11-22T11:39:50;3.63;;;3.33;;
21827;SDS011;11076;47.942;11.804;2023-11-22T11:50:01;3.70;;;3.37;;
21827;SDS011;11076;47.942;11.804;2023-11-22T11:55:04;4.40;;;3.30;;
21827;SDS011;11076;47.942;11.804;2023-11-22T12:00:08;3.40;;;3.10;;
21827;SDS011;11076;47.942;11.804;2023-11-22T12:05:14;6.20;;;5.60;;
21827;SDS011;11076;47.942;11.804;2023-11-22T12:10:17;4.20;;;3.80;;
21827;SDS011;11076;47.942;11.804;2023-11-22T12:15:19;4.43;;;4.03;;
21827;SDS011;11076;47.942;11.804;2023-11-22T12:20:22;3.60;;;3.30;;
21827;SDS011;11076;47.942;11.804;2023-11-22T12:25:27;4.37;;;3.47;;
21827;SDS011;11076;47.942;11.804;2023-11-22T12:30:32;3.33;;;3.03;;
21827;SDS011;11076;47.942;11.804;2023-11-22T12:35:36;3.07;;;2.77;;
21827;SDS011;11076;47.942;11.804;2023-11-22T12:40:43;2.57;;;2.37;;
21827;SDS011;11076;47.942;11.804;2023-11-22T12:45:47;3.33;;;2.83;;
21827;SDS011;11076;47.942;11.804;2023-11-22T12:51:00;2.90;;;2.63;;
21827;SDS011;11076;47.942;11.804;2023-11-22T12:56:02;2.97;;;2.77;;
21827;SDS011;11076;47.942;11.804;2023-11-22T13:01:06;4.97;;;2.67;;
21827;SDS011;11076;47.942;11.804;2023-11-22T13:06:08;8.50;;;3.17;;
21827;SDS011;11076;47.942;11.804;2023-11-22T13:11:11;3.83;;;2.80;;
21827;SDS011;11076;47.942;11.804;2023-11-22T13:16:13;3.10;;;2.63;;
21827;SDS011;11076;47.942;11.804;2023-11-22T13:21:18;7.93;;;2.70;;
21827;SDS011;11076;47.942;11.804;2023-11-22T13:26:21;2.40;;;2.20;;
21827;SDS011;11076;47.942;11.804;2023-11-22T13:31:23;2.70;;;2.50;;
21827;SDS011;11076;47.942;11.804;2023-11-22T13:36:26;3.70;;;3.40;;
21827;SDS011;11076;47.942;11.804;2023-11-22T13:41:29;2.93;;;2.70;;
21827;SDS011;11076;47.942;11.804;2023-11-22T13:46:32;3.13;;;2.30;;
21827;SDS011;11076;47.942;11.804;2023-11-22T13:51:35;2.57;;;2.37;;
21827;SDS011;11076;47.942;11.804;2023-11-22T13:56:37;3.20;;;2.90;;
21827;SDS011;11076;47.942;11.804;2023-11-22T14:01:39;3.13;;;2.83;;
21827;SDS011;11076;47.942;11.804;2023-11-22T14:06:42;4.57;;;3.50;;
21827;SDS011;11076;47.942;11.804;2023-11-22T14:11:44;2.47;;;2.27;;
21827;SDS011;11076;47.942;11.804;2023-11-22T14:16:47;4.37;;;3.17;;
21827;SDS011;11076;47.942;11.804;2023-11-22T14:21:51;16.87;;;12.20;;
21827;SDS011;11076;47.942;11.804;2023-11-22T14:26:53;20.17;;;14.63;;
21827;SDS011;11076;47.942;11.804;2023-11-22T14:31:56;5.10;;;3.17;;
21827;SDS011;11076;47.942;11.804;2023-11-22T14:36:59;2.87;;;2.60;;
21827;SDS011;11076;47.942;11.804;2023-11-22T14:42:02;2.80;;;2.60;;
21827;SDS011;11076;47.942;11.804;2023-11-22T14:47:07;2.67;;;2.47;;
21827;SDS011;11076;47.942;11.804;2023-11-22T14:52:21;3.20;;;2.90;;
21827;SDS011;11076;47.942;11.804;2023-11-22T14:57:25;2.90;;;2.60;;
21827;SDS011;11076;47.942;11.804;2023-11-22T15:02:28;4.10;;;2.87;;
21827;SDS011;11076;47.942;11.804;2023-11-22T15:07:30;2.80;;;2.60;;
21827;SDS011;11076;47.942;11.804;2023-11-22T15:12:33;2.60;;;2.40;;
21827;SDS011;11076;47.942;11.804;2023-11-22T15:17:35;2.83;;;2.63;;
21827;SDS011;11076;47.942;11.804;2023-11-22T15:22:38;2.53;;;2.33;;
21827;SDS011;11076;47.942;11.804;2023-11-22T15:27:40;4.50;;;2.80;;
21827;SDS011;11076;47.942;11.804;2023-11-22T15:32:43;3.33;;;2.70;;
21827;SDS011;11076;47.942;11.804;2023-11-22T15:37:45;3.07;;;2.77;;
21827;SDS011;11076;47.942;11.804;2023-11-22T15:42:48;3.13;;;2.83;;
21827;SDS011;11076;47.942;11.804;2023-11-22T15:47:51;3.50;;;3.20;;
21827;SDS011;11076;47.942;11.804;2023-11-22T15:52:54;3.70;;;3.40;;
21827;SDS011;11076;47.942;11.804;2023-11-22T15:57:57;3.20;;;2.90;;
21827;SDS011;11076;47.942;11.804;2023-11-22T16:02:59;3.23;;;2.93;;
21827;SDS011;11076;47.942;11.804;2023-11-22T16:08:02;2.87;;;2.67;;
21827;SDS011;11076;47.942;11.804;2023-11-22T16:13:04;4.40;;;4.00;;
21827;SDS011;11076;47.942;11.804;2023-11-22T16:18:07;3.13;;;2.67;;
21827;SDS011;11076;47.942;11.804;2023-11-22T16:23:09;3.50;;;3.20;;
21827;SDS011;11076;47.942;11.804;2023-11-22T16:28:14;3.87;;;3.53;;
21827;SDS011;11076;47.942;11.804;2023-11-22T16:33:17;4.10;;;3.33;;
21827;SDS011;11076;47.942;11.804;2023-11-22T16:38:19;5.60;;;4.73;;
21827;SDS011;11076;47.942;11.804;2023-11-22T16:43:22;4.93;;;4.20;;
21827;SDS011;11076;47.942;11.804;2023-11-22T16:48:24;5.33;;;4.47;;
21827;SDS011;11076;47.942;11.804;2023-11-22T16:53:27;6.10;;;5.00;;
21827;SDS011;11076;47.942;11.804;2023-11-22T16:58:29;7.00;;;4.10;;
21827;SDS011;11076;47.942;11.804;2023-11-22T17:03:32;6.93;;;4.83;;
21827;SDS011;11076;47.942;11.804;2023-11-22T17:08:35;6.67;;;4.90;;
21827;SDS011;11076;47.942;11.804;2023-11-22T17:13:37;4.23;;;3.83;;
21827;SDS011;11076;47.942;11.804;2023-11-22T17:18:40;11.80;;;6.83;;
21827;SDS011;11076;47.942;11.804;2023-11-22T17:23:42;7.23;;;5.80;;
21827;SDS011;11076;47.942;11.804;2023-11-22T17:28:45;14.03;;;9.23;;
21827;SDS011;11076;47.942;11.804;2023-11-22T17:33:50;10.53;;;6.90;;
21827;SDS011;11076;47.942;11.804;2023-11-22T17:38:52;9.27;;;6.87;;
21827;SDS011;11076;47.942;11.804;2023-11-22T17:43:55;7.63;;;5.07;;
21827;SDS011;11076;47.942;11.804;2023-11-22T17:48:57;12.07;;;5.73;;
21827;SDS011;11076;47.942;11.804;2023-11-22T17:54:00;5.73;;;4.97;;
21827;SDS011;11076;47.942;11.804;2023-11-22T17:59:03;6.13;;;4.87;;
21827;SDS011;11076;47.942;11.804;2023-11-22T18:04:05;11.10;;;4.67;;
21827;SDS011;11076;47.942;11.804;2023-11-22T18:09:08;8.17;;;5.43;;
21827;SDS011;11076;47.942;11.804;2023-11-22T18:14:12;7.00;;;5.37;;
21827;SDS011;11076;47.942;11.804;2023-11-22T18:19:14;13.77;;;7.60;;
21827;SDS011;11076;47.942;11.804;2023-11-22T18:24:17;6.87;;;5.33;;
21827;SDS011;11076;47.942;11.804;2023-11-22T18:29:23;7.47;;;5.73;;
21827;SDS011;11076;47.942;11.804;2023-11-22T18:34:29;8.40;;;6.03;;
21827;SDS011;11076;47.942;11.804;2023-11-22T18:39:34;8.80;;;6.13;;
21827;SDS011;11076;47.942;11.804;2023-11-22T18:44:36;10.93;;;7.43;;
21827;SDS011;11076;47.942;11.804;2023-11-22T18:49:40;8.83;;;6.10;;
21827;SDS011;11076;47.942;11.804;2023-11-22T18:54:43;6.80;;;5.70;;
21827;SDS011;11076;47.942;11.804;2023-11-22T18:59:45;11.70;;;7.30;;
21827;SDS011;11076;47.942;11.804;2023-11-22T19:04:48;8.00;;;5.50;;
21827;SDS011;11076;47.942;11.804;2023-11-22T19:09:50;7.57;;;5.67;;
21827;SDS011;11076;47.942;11.804;2023-11-22T19:14:53;12.60;;;8.83;;
21827;SDS011;11076;47.942;11.804;2023-11-22T19:19:55;13.60;;;9.10;;
21827;SDS011;11076;47.942;11.804;2023-11-22T19:24:58;10.70;;;7.20;;
21827;SDS011;11076;47.942;11.804;2023-11-22T19:30:00;9.30;;;6.70;;
21827;SDS011;11076;47.942;11.804;2023-11-22T19:35:06;8.70;;;6.53;;
21827;SDS011;11076;47.942;11.804;2023-11-22T19:40:08;13.00;;;7.50;;
21827;SDS011;11076;47.942;11.804;2023-11-22T19:45:11;13.93;;;7.37;;
21827;SDS011;11076;47.942;11.804;2023-11-22T19:50:14;10.00;;;7.17;;
21827;SDS011;11076;47.942;11.804;2023-11-22T19:55:17;9.83;;;7.60;;
21827;SDS011;11076;47.942;11.804;2023-11-22T20:00:21;10.53;;;8.00;;
21827;SDS011;11076;47.942;11.804;2023-11-22T20:05:23;12.73;;;7.97;;
21827;SDS011;11076;47.942;11.804;2023-11-22T20:10:25;8.77;;;6.63;;
21827;SDS011;11076;47.942;11.804;2023-11-22T20:15:28;14.93;;;9.23;;
21827;SDS011;11076;47.942;11.804;2023-11-22T20:20:30;9.67;;;7.00;;
21827;SDS011;11076;47.942;11.804;2023-11-22T20:25:33;20.30;;;12.47;;
21827;SDS011;11076;47.942;11.804;2023-11-22T20:30:36;9.00;;;7.03;;
21827;SDS011;11076;47.942;11.804;2023-11-22T20:35:39;10.57;;;6.80;;
21827;SDS011;11076;47.942;11.804;2023-11-22T20:40:42;9.93;;;6.53;;
21827;SDS011;11076;47.942;11.804;2023-11-22T20:45:45;8.97;;;6.40;;
21827;SDS011;11076;47.942;11.804;2023-11-22T20:50:48;9.50;;;6.37;;
21827;SDS011;11076;47.942;11.804;2023-11-22T20:55:51;9.50;;;6.37;;
21827;SDS011;11076;47.942;11.804;2023-11-22T21:00:54;9.70;;;6.80;;
21827;SDS011;11076;47.942;11.804;2023-11-22T21:05:56;10.63;;;6.63;;
21827;SDS011;11076;47.942;11.804;2023-11-22T21:11:00;7.60;;;6.10;;
21827;SDS011;11076;47.942;11.804;2023-11-22T21:16:03;8.87;;;6.50;;
21827;SDS011;11076;47.942;11.804;2023-11-22T21:21:11;10.67;;;7.77;;
21827;SDS011;11076;47.942;11.804;2023-11-22T21:26:15;10.17;;;7.30;;
21827;SDS011;11076;47.942;11.804;2023-11-22T21:31:18;10.73;;;7.73;;
21827;SDS011;11076;47.942;11.804;2023-11-22T21:36:20;9.57;;;7.53;;
21827;SDS011;11076;47.942;11.804;2023-11-22T21:41:24;11.43;;;8.20;;
21827;SDS011;11076;47.942;11.804;2023-11-22T21:46:26;11.20;;;8.37;;
21827;SDS011;11076;47.942;11.804;2023-11-22T21:51:29;13.83;;;9.60;;
21827;SDS011;11076;47.942;11.804;2023-11-22T21:56:39;13.57;;;9.07;;
21827;SDS011;11076;47.942;11.804;2023-11-22T22:01:45;10.53;;;8.27;;
21827;SDS011;11076;47.942;11.804;2023-11-22T22:06:51;13.00;;;9.27;;
21827;SDS011;11076;47.942;11.804;2023-11-22T22:11:54;12.00;;;9.17;;
21827;SDS011;11076;47.942;11.804;2023-11-22T22:16:56;12.50;;;8.70;;
21827;SDS011;11076;47.942;11.804;2023-11-22T22:21:59;12.53;;;8.97;;
21827;SDS011;11076;47.942;11.804;2023-11-22T22:27:01;16.00;;;9.03;;
21827;SDS011;11076;47.942;11.804;2023-11-22T22:32:04;16.03;;;10.97;;
21827;SDS011;11076;47.942;11.804;2023-11-22T22:37:07;13.93;;;9.63;;
21827;SDS011;11076;47.942;11.804;2023-11-22T22:42:09;14.23;;;9.37;;
21827;SDS011;11076;47.942;11.804;2023-11-22T22:47:12;14.80;;;10.70;;
21827;SDS011;11076;47.942;11.804;2023-11-22T22:52:15;14.33;;;9.97;;
21827;SDS011;11076;47.942;11.804;2023-11-22T22:57:17;16.27;;;10.60;;
21827;SDS011;11076;47.942;11.804;2023-11-22T23:02:19;13.83;;;9.33;;
21827;SDS011;11076;47.942;11.804;2023-11-22T23:07:22;12.30;;;8.87;;
21827;SDS011;11076;47.942;11.804;2023-11-22T23:12:27;11.57;;;8.37;;
21827;SDS011;11076;47.942;11.804;2023-11-22T23:17:29;12.80;;;8.73;;
21827;SDS011;11076;47.942;11.804;2023-11-22T23:22:32;13.63;;;9.27;;
21827;SDS011;11076;47.942;11.804;2023-11-22T23:27:34;12.67;;;8.57;;
21827;SDS011;11076;47.942;11.804;2023-11-22T23:32:38;12.03;;;8.10;;
21827;SDS011;11076;47.942;11.804;2023-11-22T23:37:41;13.03;;;8.93;;
21827;SDS011;11076;47.942;11.804;2023-11-22T23:42:47;12.10;;;8.50;;
21827;SDS011;11076;47.942;11.804;2023-11-22T23:47:51;15.33;;;9.23;;
21827;SDS011;11076;47.942;11.804;2023-11-22T23:52:54;12.77;;;8.47;;
21827;SDS011;11076;47.942;11.804;2023-11-22T23:57:56;11.13;;;7.80;;
